Record high temperature 44.9°C Record low temperature -0.3°C Record high gust 85.1 km/h Record high average 77.7 km/h Record daily rain 109.1 mm Record low windchill -4.5°C Record high barometer 1043.6 hPa Record low barometer 978.0 hPa
Daily high pressure 1026.8 mb Daily low pressure 1025.2 mb Daily low windchill 12.2°C Daily high heat index 13.9°C Daily high gust speed 13.0 kmh S Daily high average speed 9.3 kmh NNE
Estación de MeteoMurcia.com -------- Murcia-Puente Tocinos
Ultima grabación a: 07:20 Data: 29 March 2017, time of next update: 07:30
Tiempo actualClear/Night Temperatura actual12.2°C (54.0°F), Temperatura aparente 11.9°C
Temperatura máxima (desde medianoche)13.9°C at: 01:00 Temperatura mínima (desde medianoche)12.2°C at: 07:11
Velocidad media del viento (diez minutos)3.7 kmh (2.0 kts) Dirección del viento (diez minutos)W (261°)
Temperatura aparente 12.2°C ráfagas maxima (última hora)7.6 kmh (4.1 kts) at: 06:29
ráfagas maxima (desde medianoche)13.0 kmh (7.0 kts) at: 02:12 Maximo media de un minuto (desde medianoche)9.3 kmh (5.0 kts) at: 00:02
Lluvia (última hora)0.0 mm Lluvia (desde medianoche)0.0 mm (0.00 in.)---
Lluvia Este mes 55.9 mm (2.20 in.) Lluvia Hasta la fecha este año118.7 mm (4.67 in.)
Lluvia máxima por minuto (última hora)0.0 mm/min Lluvia maxima por hora (últimas 6 horas)0.0 mm/hora
Lluvia de ayer 0.0 mm Punto de rocío 10.1°C (Wet Bulb :11.1°C )
Humedad 87 %, Humidex 13.5°C Barómetro corregido a msl1025.5 mb
cambio de presión+0.3 mb (última hora) Tendencia (últimas 1 hora)ESTACIONARIO
cambio de presión (últimas 12 horas)+1.8 mb cambio de presión (últimas 6 horas)-1.2 mb
Current Temp. Interna 24.5°C
Current Hum. Interna 50%


Última imagen cámara web


Weather report/warning/Metars

Alicante / El Altet, Spain (LEAL) 38-17N 000-33W 31M
Mar 29, 2017 - 01:00 AM EDT / 2017.03.29 0500 UTC
Wind: from the W (270 degrees) at 7 MPH (6 KT) (direction variable):0
Visibility: greater than 7 mile(s):0
Temperature: 50 F (10 C)
Dew Point: 46 F (8 C)
Relative Humidity: 87%
Pressure (altimeter): 30.33 in. Hg (1027 hPa)
ob: LEAL 290500Z 27006KT 240V300 CAVOK 10/08 Q1027 NOSIG
cycle: 5
Murcia / San Javier, Spain (LELC) 37-47N 000-48W 3M
Mar 29, 2017 - 01:00 AM EDT / 2017.03.29 0500 UTC
Wind: Variable at 2 MPH (2 KT):0
Visibility: less than 1 mile:0
Sky conditions: overcast
Weather: fog
Temperature: 55 F (13 C)
Dew Point: 53 F (12 C)
Relative Humidity: 93%
Pressure (altimeter): 30.33 in. Hg (1027 hPa)
ob: LELC 290500Z VRB02KT 0700 R05R/P2000 FG OVC007 13/12 Q1027 NOSIG
cycle: 5
Murcia / Alcantarilla, Spain (LERI) 37-57N 001-14W 75M
Mar 28, 2017 - 02:00 PM EDT / 2017.03.28 1800 UTC
Wind: Variable at 3 MPH (3 KT):0
Visibility: greater than 7 mile(s):0
Temperature: 66 F (19 C)
Dew Point: 46 F (8 C)
Relative Humidity: 48%
Pressure (altimeter): 30.30 in. Hg (1026 hPa)
ob: LERI 281800Z VRB03KT CAVOK 19/08 Q1026 NOSIG
cycle: 18
Gerona / Costa Brava, Spain (LEGE) 41-54N 002-46E 129M
Mar 29, 2017 - 01:00 AM EDT / 2017.03.29 0500 UTC
Wind: Calm:0
Visibility: greater than 7 mile(s):0
Temperature: 42 F (6 C)
Dew Point: 42 F (6 C)
Relative Humidity: 100%
Pressure (altimeter): 30.30 in. Hg (1026 hPa)
ob: LEGE 290500Z 00000KT CAVOK 06/06 Q1026 NOSIG
cycle: 5
Madri-Colmenar, Spain (LECV) 40-39N 003-44W
Mar 28, 2017 - 02:00 PM EDT / 2017.03.28 1800 UTC
Wind: from the SW (220 degrees) at 5 MPH (4 KT):0
Visibility: greater than 7 mile(s):0
Sky conditions: mostly clear
Temperature: 55 F (13 C)
Dew Point: 37 F (3 C)
Relative Humidity: 50%
Pressure (altimeter): 30.33 in. Hg (1027 hPa)
ob: LECV 281800Z 22004KT 9999 FEW050 13/03 Q1027
cycle: 18
Asturias / Aviles, Spain (LEAS) 43-33N 006-02W 130M
Mar 29, 2017 - 01:00 AM EDT / 2017.03.29 0500 UTC
Wind: from the WSW (240 degrees) at 9 MPH (8 KT):0
Visibility: greater than 7 mile(s):0
Temperature: 53 F (12 C)
Dew Point: 42 F (6 C)
Relative Humidity: 66%
Pressure (altimeter): 30.24 in. Hg (1024 hPa)
ob: LEAS 290500Z 24008KT CAVOK 12/06 Q1024 NOSIG
cycle: 5
Almeria / Aeropuerto, Spain (LEAM) 36-51N 002-23W 21M
Mar 29, 2017 - 01:00 AM EDT / 2017.03.29 0500 UTC
Wind: from the N (350 degrees) at 6 MPH (5 KT):0
Visibility: greater than 7 mile(s):0
Temperature: 51 F (11 C)
Dew Point: 42 F (6 C)
Relative Humidity: 71%
Pressure (altimeter): 30.30 in. Hg (1026 hPa)
ob: LEAM 290500Z 35005KT CAVOK 11/06 Q1026
cycle: 5
Pamplona / Noain, Spain (LEPP) 42-46N 001-38W 453M
Mar 29, 2017 - 01:00 AM EDT / 2017.03.29 0500 UTC
Wind: from the ENE (070 degrees) at 1 MPH (1 KT):0
Visibility: greater than 7 mile(s):0
Temperature: 39 F (4 C)
Dew Point: 37 F (3 C)
Relative Humidity: 93%
Pressure (altimeter): 30.33 in. Hg (1027 hPa)
ob: LEPP 290500Z 07001KT CAVOK 04/03 Q1027
cycle: 5
Badajoz / Talavera La Real, Spain (LEBZ) 38-53N 006-49W 192M
Mar 29, 2017 - 01:00 AM EDT / 2017.03.29 0500 UTC
Visibility: 3 mile(s):0
Weather: mist
Pressure (altimeter): 30.30 in. Hg (1026 hPa)
ob: LEBZ 290500Z /////KT 5000 R31///// BR NSC ///// Q1026
cycle: 5
Albacete / Los Llanos, Spain (LEAB) 38-57N 001-51W 704M
Mar 29, 2017 - 01:00 AM EDT / 2017.03.29 0500 UTC
Wind: from the ESE (120 degrees) at 3 MPH (3 KT):0
Visibility: greater than 7 mile(s):0
Temperature: 35 F (2 C)
Dew Point: 33 F (1 C)
Relative Humidity: 93%
Pressure (altimeter): 30.36 in. Hg (1028 hPa)
ob: LEAB 290500Z 12003KT CAVOK 02/01 Q1028 NOSIG
cycle: 5



La informacion se graba a intervalos de 2 minutos, pero hay info grabada cada minuto. Optimizado para 800*600 y Color verdadero. Use el boton de

Use the RECARGA en su navegador para recojer la ulima info.

Clicar aquí para regarga diaria de medias/extremas del mes














Created by "Weather Display" software version 10.37S at this start time/date 1:09:42 29/03/2017

La estación de MeteoMurcia.com, publica sus datos en los siguientes proyectos:

Meteoclimatic www.awekas.at

W3Counter
Web Analytics